Time;durP1;ratioP1;P1;durP2;ratioP2;P2;SDS_P1;SDS_P2;PMS_P1;PMS_P2;Temp;Humidity;BMP_temperature;BMP_pressure;BME280_temperature;BME280_humidity;BME280_pressure;Samples;Min_cycle;Max_cycle;Signal;HPM_P1;HPM_P2
2023/05/14 00:01:53;;;;;;;;;;;;;;;10.61;100.00;96461.94;4983164;28;19963;-71
2023/05/14 00:04:19;;;;;;;;;;;;;;;10.61;100.00;96461.94;4982900;28;19952;-72
2023/05/14 00:06:45;;;;;;;;;;;;;;;10.60;100.00;96457.69;4982586;28;19964;-71
2023/05/14 00:09:12;;;;;;;;;;;;;;;10.61;100.00;96456.69;4983041;28;19960;-71
2023/05/14 00:11:37;;;;;;;;;;;;;;;10.62;100.00;96460.09;4983012;28;20276;-74
2023/05/14 00:14:04;;;;;;;;;;;;;;;10.64;100.00;96452.81;4982506;28;19941;-69
2023/05/14 00:16:30;;;;;;;;;;;;;;;10.63;100.00;96452.03;4982453;28;19964;-69
2023/05/14 00:18:55;;;;;;;;;;;;;;;10.63;100.00;96453.88;4982969;28;20028;-69
2023/05/14 00:21:21;;;;;;;;;;;;;;;10.62;100.00;96450.41;4983123;28;19957;-69
2023/05/14 00:23:47;;;;;;;;;;;;;;;10.61;100.00;96448.81;4983109;28;20253;-69
2023/05/14 00:26:13;;;;;;;;;;;;;;;10.60;100.00;96452.47;4982506;28;19972;-69
2023/05/14 00:28:39;;;;;;;;;;;;;;;10.58;100.00;96444.00;4982550;28;20260;-70
2023/05/14 00:31:04;;;;;;;;;;;;;;;10.56;100.00;96446.88;4982581;28;19958;-68
2023/05/14 00:33:31;;;;;;;;;;;;;;;10.54;100.00;96442.84;4982618;28;19960;-74
2023/05/14 00:35:57;;;;;;;;;;;;;;;10.55;100.00;96442.63;4982130;28;20156;-75
2023/05/14 00:38:26;;;;;;;;;;;;;;;10.55;100.00;96441.81;4982755;28;19957;-75
2023/05/14 00:40:52;;;;;;;;;;;;;;;10.54;100.00;96438.41;4982670;28;19982;-75
2023/05/14 00:43:18;;;;;;;;;;;;;;;10.54;100.00;96435.78;4982844;28;20112;-79
2023/05/14 00:45:44;;;;;;;;;;;;;;;10.55;100.00;96431.34;4982164;28;19966;-74
2023/05/14 00:48:10;;;;;;;;;;;;;;;10.56;100.00;96430.31;4982218;28;19956;-74
2023/05/14 00:50:36;;;;;;;;;;;;;;;10.56;100.00;96431.13;4984836;28;20036;-68
2023/05/14 00:53:08;;;;;;;;;;;;;;;10.58;100.00;96430.88;4985741;28;19958;-69
2023/05/14 00:55:36;;;;;;;;;;;;;;;10.59;100.00;96423.84;4985942;28;19963;-68
2023/05/14 00:58:06;;;;;;;;;;;;;;;10.61;100.00;96421.81;4985746;28;19959;-69
2023/05/14 01:00:31;;;;;;;;;;;;;;;10.60;100.00;96418.38;4985740;28;19957;-68
2023/05/14 01:03:00;;;;;;;;;;;;;;;10.60;100.00;96423.59;5052858;28;19958;-68
2023/05/14 01:05:28;;;;;;;;;;;;;;;10.59;100.00;96415.97;4985709;28;20147;-68
2023/05/14 01:07:58;;;;;;;;;;;;;;;10.59;100.00;96418.59;4985790;28;19960;-68
2023/05/14 01:10:27;;;;;;;;;;;;;;;10.58;100.00;96412.53;4985415;28;19945;-68
2023/05/14 01:13:12;;;;;;;;;;;;;;;10.57;100.00;96409.13;4985560;28;19967;-68
2023/05/14 01:15:38;;;;;;;;;;;;;;;10.59;100.00;96408.13;4985484;28;19961;-68
2023/05/14 01:18:07;;;;;;;;;;;;;;;10.58;100.00;96409.91;4985287;28;19963;-69
2023/05/14 01:20:32;;;;;;;;;;;;;;;10.59;100.00;96408.91;4985337;28;19955;-68
2023/05/14 01:22:58;;;;;;;;;;;;;;;10.59;100.00;96403.66;4985553;28;20063;-68
2023/05/14 01:25:24;;;;;;;;;;;;;;;10.58;100.00;96402.03;4985327;28;19972;-78
2023/05/14 01:28:04;;;;;;;;;;;;;;;10.57;100.00;96401.25;4985454;28;20257;-77
2023/05/14 01:30:34;;;;;;;;;;;;;;;10.60;100.00;96401.84;4985353;28;19956;-77
2023/05/14 01:33:02;;;;;;;;;;;;;;;10.62;100.00;96405.03;4984915;28;19955;-77
2023/05/14 01:35:29;;;;;;;;;;;;;;;10.63;100.00;96398.78;5052561;28;19975;-76
2023/05/14 01:38:03;;;;;;;;;;;;;;;10.63;100.00;96396.97;4985173;28;19968;-77
2023/05/14 01:40:31;;;;;;;;;;;;;;;10.64;100.00;96395.13;4984982;28;20128;-77
2023/05/14 01:42:56;;;;;;;;;;;;;;;10.63;100.00;96393.53;4985233;28;19956;-68
2023/05/14 01:45:22;;;;;;;;;;;;;;;10.63;100.00;96399.59;4985257;28;19963;-67
2023/05/14 01:47:49;;;;;;;;;;;;;;;10.60;100.00;96397.38;4985332;28;19960;-67
2023/05/14 01:50:15;;;;;;;;;;;;;;;10.59;100.00;96400.25;4985276;28;19961;-66
2023/05/14 01:52:41;;;;;;;;;;;;;;;10.56;100.00;96396.22;4985051;28;19958;-67
2023/05/14 01:55:07;;;;;;;;;;;;;;;10.56;100.00;96398.84;4985111;28;19956;-67
2023/05/14 01:57:33;;;;;;;;;;;;;;;10.56;100.00;96402.28;4984497;28;20223;-67
2023/05/14 01:59:59;;;;;;;;;;;;;;;10.55;100.00;96392.81;4985359;28;20033;-67
2023/05/14 02:02:25;;;;;;;;;;;;;;;10.52;100.00;96400.28;4984373;28;19962;-77
2023/05/14 02:04:51;;;;;;;;;;;;;;;10.51;100.00;96396.88;4984670;28;19967;-71
2023/05/14 02:07:17;;;;;;;;;;;;;;;10.49;100.00;96396.28;4984548;28;19964;-71
2023/05/14 02:09:43;;;;;;;;;;;;;;;10.50;100.00;96394.50;4984544;28;20022;-72
2023/05/14 02:12:10;;;;;;;;;;;;;;;10.50;100.00;96402.38;4984521;28;19958;-72
2023/05/14 02:14:36;;;;;;;;;;;;;;;10.49;100.00;96392.88;4984578;28;20280;-72
2023/05/14 02:17:02;;;;;;;;;;;;;;;10.49;100.00;96395.50;5051418;28;19973;-71
2023/05/14 02:19:29;;;;;;;;;;;;;;;10.49;100.00;96393.69;4984514;28;19962;-72
2023/05/14 02:21:55;;;;;;;;;;;;;;;10.49;100.00;96398.91;4984813;28;19960;-84
2023/05/14 02:24:21;;;;;;;;;;;;;;;10.50;100.00;96395.28;5051593;28;20039;-79
2023/05/14 02:26:46;;;;;;;;;;;;;;;10.48;100.00;96393.91;4984484;28;20234;-82
2023/05/14 02:29:12;;;;;;;;;;;;;;;10.48;100.00;96388.66;4984075;28;19960;-83
2023/05/14 02:31:38;;;;;;;;;;;;;;;10.45;100.00;96389.09;4984430;28;20305;-83
2023/05/14 02:34:05;;;;;;;;;;;;;;;10.44;100.00;96392.75;4984117;28;20238;-83
2023/05/14 02:36:31;;;;;;;;;;;;;;;10.44;100.00;96404.03;4984079;28;19963;-82
2023/05/14 02:38:58;;;;;;;;;;;;;;;10.44;100.00;96396.16;4984157;28;20007;-70
2023/05/14 02:41:24;;;;;;;;;;;;;;;10.44;100.00;96395.38;4984114;28;19960;-69
2023/05/14 02:43:50;;;;;;;;;;;;;;;10.42;100.00;96400.03;4984121;28;20275;-68
2023/05/14 02:46:16;;;;;;;;;;;;;;;10.38;100.00;96393.63;4984251;28;19975;-68
2023/05/14 02:48:42;;;;;;;;;;;;;;;10.36;100.00;96402.47;4984139;28;19953;-69
2023/05/14 02:51:09;;;;;;;;;;;;;;;10.36;100.00;96406.94;4984169;28;19961;-68
2023/05/14 02:53:35;;;;;;;;;;;;;;;10.36;100.00;96402.47;4984248;28;19959;-68
2023/05/14 02:56:01;;;;;;;;;;;;;;;10.38;100.00;96410.13;4984132;28;19980;-69
2023/05/14 02:58:26;;;;;;;;;;;;;;;10.38;100.00;96404.09;4984383;28;20163;-70
2023/05/14 03:00:52;;;;;;;;;;;;;;;10.35;100.00;96400.88;4984246;28;20138;-68
2023/05/14 03:03:18;;;;;;;;;;;;;;;10.36;100.00;96404.31;5051360;28;20048;-68
2023/05/14 03:05:44;;;;;;;;;;;;;;;10.36;100.00;96399.06;4983758;28;19983;-69
2023/05/14 03:08:10;;;;;;;;;;;;;;;10.35;100.00;96395.66;4983789;28;19961;-68
2023/05/14 03:10:36;;;;;;;;;;;;;;;10.35;100.00;96393.03;4983686;28;19956;-68
2023/05/14 03:13:02;;;;;;;;;;;;;;;10.34;100.00;96393.25;4982665;28;19956;-68
2023/05/14 03:15:28;;;;;;;;;;;;;;;10.32;100.00;96397.91;4983705;28;19975;-69
2023/05/14 03:17:53;;;;;;;;;;;;;;;10.29;100.00;96391.28;4983667;28;19964;-70
2023/05/14 03:20:19;;;;;;;;;;;;;;;10.27;100.00;96393.28;5051016;28;19983;-73
2023/05/14 03:22:45;;;;;;;;;;;;;;;10.25;100.00;96392.69;4983229;28;20130;-72
2023/05/14 03:25:11;;;;;;;;;;;;;;;10.24;100.00;96390.28;4983632;28;19965;-73
2023/05/14 03:27:37;;;;;;;;;;;;;;;10.22;100.00;96397.56;4983181;28;19948;-73
2023/05/14 03:30:03;;;;;;;;;;;;;;;10.20;100.00;96391.72;4983381;28;19957;-73
2023/05/14 03:32:30;;;;;;;;;;;;;;;10.20;100.00;96394.34;4983871;28;19954;-73
2023/05/14 03:34:56;;;;;;;;;;;;;;;10.18;100.00;96396.38;4983724;28;19964;-82
2023/05/14 03:37:22;;;;;;;;;;;;;;;10.16;100.00;96397.41;4983221;28;19953;-69
2023/05/14 03:39:48;;;;;;;;;;;;;;;10.16;100.00;96399.22;4983480;28;19963;-69
2023/05/14 03:42:14;;;;;;;;;;;;;;;10.16;100.00;96402.66;4983207;28;19958;-69
2023/05/14 03:44:39;;;;;;;;;;;;;;;10.16;100.00;96401.84;4983412;28;19965;-69
2023/05/14 03:47:05;;;;;;;;;;;;;;;10.16;100.00;96393.97;4983431;28;19967;-69
2023/05/14 03:49:31;;;;;;;;;;;;;;;10.15;100.00;96401.03;4983262;28;19981;-70
2023/05/14 03:51:58;;;;;;;;;;;;;;;10.11;100.00;96402.50;4982780;28;19958;-71
2023/05/14 03:54:24;;;;;;;;;;;;;;;10.08;100.00;96400.31;5049991;28;19958;-73
2023/05/14 03:56:50;;;;;;;;;;;;;;;10.10;100.00;96405.31;4982767;28;19941;-73
2023/05/14 03:59:16;;;;;;;;;;;;;;;10.10;100.00;96400.06;4982783;28;20184;-73
2023/05/14 04:01:42;;;;;;;;;;;;;;;10.08;100.00;96402.09;5050217;28;19955;-73
2023/05/14 04:04:08;;;;;;;;;;;;;;;10.10;100.00;96400.06;4982791;28;19974;-72
2023/05/14 04:06:34;;;;;;;;;;;;;;;10.10;100.00;96402.69;4982679;28;19960;-73
2023/05/14 04:09:00;;;;;;;;;;;;;;;10.10;100.00;96408.75;4982804;28;20027;-73
2023/05/14 04:11:26;;;;;;;;;;;;;;;10.12;100.00;96400.66;4982861;28;19960;-70
2023/05/14 04:13:52;;;;;;;;;;;;;;;10.10;100.00;96406.13;4982822;28;19967;-71
2023/05/14 04:16:18;;;;;;;;;;;;;;;10.08;100.00;96396.88;4982818;28;20002;-71
2023/05/14 04:18:43;;;;;;;;;;;;;;;10.06;100.00;96399.72;5049353;28;20265;-71
2023/05/14 04:21:09;;;;;;;;;;;;;;;10.04;100.00;96393.09;4982476;28;19964;-71
2023/05/14 04:23:35;;;;;;;;;;;;;;;10.02;100.00;96393.31;4982827;28;19941;-71
2023/05/14 04:26:01;;;;;;;;;;;;;;;10.01;100.00;96389.06;4982334;28;20141;-71
2023/05/14 04:28:27;;;;;;;;;;;;;;;10.00;100.00;96379.63;4983108;28;19950;-69
2023/05/14 04:30:53;;;;;;;;;;;;;;;9.99;100.00;96382.44;4982839;28;19960;-68
2023/05/14 04:33:19;;;;;;;;;;;;;;;9.98;100.00;96383.47;4982382;28;19957;-70
2023/05/14 04:35:45;;;;;;;;;;;;;;;9.97;100.00;96382.66;4982890;28;19958;-71
2023/05/14 04:38:12;;;;;;;;;;;;;;;9.99;100.00;96387.69;4982766;28;19954;-71
2023/05/14 04:40:40;;;;;;;;;;;;;;;10.01;100.00;96390.91;4982721;28;19960;-71
2023/05/14 04:43:06;;;;;;;;;;;;;;;10.03;100.00;96397.50;4982430;28;19965;-71
2023/05/14 04:45:32;;;;;;;;;;;;;;;10.04;100.00;96390.47;4982686;28;20150;-71
2023/05/14 04:47:58;;;;;;;;;;;;;;;10.03;100.00;96392.28;4982561;28;19954;-68
2023/05/14 04:50:24;;;;;;;;;;;;;;;10.03;100.00;96400.13;4982065;28;19963;-71
2023/05/14 04:52:50;;;;;;;;;;;;;;;10.04;100.00;96400.97;4982577;28;20005;-71
2023/05/14 04:55:16;;;;;;;;;;;;;;;10.04;100.00;96395.72;4982534;28;19963;-71
2023/05/14 04:57:42;;;;;;;;;;;;;;;10.02;100.00;96397.75;4981998;28;19961;-71
2023/05/14 05:00:09;;;;;;;;;;;;;;;10.02;100.00;96403.00;4982502;28;20105;-71
2023/05/14 05:02:35;;;;;;;;;;;;;;;10.02;100.00;96395.13;4982376;28;19955;-71
2023/05/14 05:05:02;;;;;;;;;;;;;;;10.04;100.00;96395.72;4982438;28;20256;-71
2023/05/14 05:07:27;;;;;;;;;;;;;;;10.04;100.00;96395.72;4982018;28;19963;-68
2023/05/14 05:09:53;;;;;;;;;;;;;;;10.04;100.00;96399.13;5048892;28;19964;-70
2023/05/14 05:12:20;;;;;;;;;;;;;;;10.06;100.00;96394.47;4982108;28;19951;-71
2023/05/14 05:14:46;;;;;;;;;;;;;;;10.09;100.00;96388.81;4982103;28;19957;-71
2023/05/14 05:17:12;;;;;;;;;;;;;;;10.12;100.00;96392.81;4982213;28;19999;-70
2023/05/14 05:19:37;;;;;;;;;;;;;;;10.16;100.00;96388.72;4981694;28;19955;-70
2023/05/14 05:22:03;;;;;;;;;;;;;;;10.19;100.00;96383.06;4982208;28;19957;-71
2023/05/14 05:24:29;;;;;;;;;;;;;;;10.23;100.00;96383.44;4982120;28;20231;-70
2023/05/14 05:26:55;;;;;;;;;;;;;;;10.26;100.00;96394.28;4981673;28;19961;-77
2023/05/14 05:29:22;;;;;;;;;;;;;;;10.30;100.00;96398.09;4981747;28;19961;-69
2023/05/14 05:31:48;;;;;;;;;;;;;;;10.33;100.00;96395.06;4982162;28;19954;-69
2023/05/14 05:34:14;;;;;;;;;;;;;;;10.35;100.00;96397.44;4982107;28;20238;-69
2023/05/14 05:36:40;;;;;;;;;;;;;;;10.36;100.00;96393.81;4982394;28;20002;-69
2023/05/14 05:39:06;;;;;;;;;;;;;;;10.36;100.00;96397.25;4985073;28;20326;-69
2023/05/14 05:41:31;;;;;;;;;;;;;;;10.36;100.00;96394.63;4985061;28;19955;-69
2023/05/14 05:43:57;;;;;;;;;;;;;;;10.36;100.00;96392.00;4985050;28;19958;-82
2023/05/14 05:46:23;;;;;;;;;;;;;;;10.35;100.00;96393.03;4985044;28;19968;-70
2023/05/14 05:48:49;;;;;;;;;;;;;;;10.38;100.00;96398.84;4984637;28;20013;-70
2023/05/14 05:51:15;;;;;;;;;;;;;;;10.37;100.00;96390.16;4985166;28;19955;-69
2023/05/14 05:53:41;;;;;;;;;;;;;;;10.41;100.00;96398.41;4985117;28;20157;-70
2023/05/14 05:56:06;;;;;;;;;;;;;;;10.46;100.00;96393.31;4985040;28;20148;-70
2023/05/14 05:58:32;;;;;;;;;;;;;;;10.48;100.00;96397.31;4984782;28;19973;-70
2023/05/14 06:00:59;;;;;;;;;;;;;;;10.55;100.00;96389.38;4985273;28;19996;-73
2023/05/14 06:03:25;;;;;;;;;;;;;;;10.57;100.00;96390.75;4985193;28;19957;-82
2023/05/14 06:05:51;;;;;;;;;;;;;;;10.57;100.00;96390.75;4984866;28;19964;-70
2023/05/14 06:08:17;;;;;;;;;;;;;;;10.60;100.00;96388.72;5051649;28;19960;-70
2023/05/14 06:10:44;;;;;;;;;;;;;;;10.62;100.00;96389.31;4984581;28;19974;-70
2023/05/14 06:13:10;;;;;;;;;;;;;;;10.62;100.00;96395.34;5051697;28;20251;-70
2023/05/14 06:15:36;;;;;;;;;;;;;;;10.63;100.00;96393.53;4984826;28;19965;-70
2023/05/14 06:18:02;;;;;;;;;;;;;;;10.63;100.00;96396.16;4984318;28;19958;-70
2023/05/14 06:20:27;;;;;;;;;;;;;;;10.62;100.00;96392.72;4984689;28;19952;-70
2023/05/14 06:22:53;;;;;;;;;;;;;;;10.61;100.00;96391.13;4984646;28;19958;-70
2023/05/14 06:25:19;;;;;;;;;;;;;;;10.62;100.00;96397.19;4984535;28;19953;-70
2023/05/14 06:27:45;;;;;;;;;;;;;;;10.65;100.00;96397.53;4984003;28;20031;-70
2023/05/14 06:30:11;;;;;;;;;;;;;;;10.62;100.00;96390.09;4984594;28;19969;-70
2023/05/14 06:32:37;;;;;;;;;;;;;;;10.63;100.00;96396.97;4984511;28;19964;-70
2023/05/14 06:35:03;;;;;;;;;;;;;;;10.65;100.00;96394.94;4984228;28;19992;-70
2023/05/14 06:37:29;;;;;;;;;;;;;;;10.68;100.00;96402.34;4984099;28;20144;-71
2023/05/14 06:39:55;;;;;;;;;;;;;;;10.69;100.00;96408.41;4984220;28;19957;-78
2023/05/14 06:42:21;;;;;;;;;;;;;;;10.65;100.00;96405.41;4984165;28;19959;-68
2023/05/14 06:44:47;;;;;;;;;;;;;;;10.65;100.00;96400.16;5050896;28;19967;-68
2023/05/14 06:47:13;;;;;;;;;;;;;;;10.65;100.00;96400.16;4983381;28;19961;-69
2023/05/14 06:49:38;;;;;;;;;;;;;;;10.64;100.00;96395.94;4984222;28;20066;-69
2023/05/14 06:52:04;;;;;;;;;;;;;;;10.67;100.00;96403.38;4984347;28;19960;-68
2023/05/14 06:54:30;;;;;;;;;;;;;;;10.67;100.00;96411.25;4984132;28;19961;-69
2023/05/14 06:56:56;;;;;;;;;;;;;;;10.64;100.00;96405.63;4983676;28;19948;-72
2023/05/14 06:59:22;;;;;;;;;;;;;;;10.62;100.00;96405.03;4983729;28;19956;-69
2023/05/14 07:01:48;;;;;;;;;;;;;;;10.59;100.00;96401.03;4984280;28;19950;-70
2023/05/14 07:04:14;;;;;;;;;;;;;;;10.56;100.00;96401.47;4984058;28;19956;-69
2023/05/14 07:06:40;;;;;;;;;;;;;;;10.55;100.00;96398.03;4984138;28;19963;-69
2023/05/14 07:09:06;;;;;;;;;;;;;;;10.57;100.00;96397.84;4983752;28;19960;-70
2023/05/14 07:11:32;;;;;;;;;;;;;;;10.63;100.00;96398.78;4983709;28;19952;-70
2023/05/14 07:13:58;;;;;;;;;;;;;;;10.65;100.00;96396.75;4983709;28;20141;-70
2023/05/14 07:16:25;;;;;;;;;;;;;;;10.70;100.00;96402.13;4983439;28;20152;-70
2023/05/14 07:18:50;;;;;;;;;;;;;;;10.74;100.00;96390.97;4983875;28;20126;-70
2023/05/14 07:21:16;;;;;;;;;;;;;;;10.79;100.00;96390.31;4983759;28;19959;-70
2023/05/14 07:23:42;;;;;;;;;;;;;;;10.84;100.00;96397.53;4983734;28;19965;-70
2023/05/14 07:26:08;;;;;;;;;;;;;;;10.87;100.00;96391.84;4983571;28;19960;-70
2023/05/14 07:28:34;;;;;;;;;;;;;;;10.90;100.00;96397.47;4983210;28;20014;-70
2023/05/14 07:31:00;;;;;;;;;;;;;;;10.89;100.00;96393.22;4983245;28;19962;-70
2023/05/14 07:33:26;;;;;;;;;;;;;;;10.91;100.00;96388.53;4983818;28;19951;-87
2023/05/14 07:35:52;;;;;;;;;;;;;;;10.92;100.00;96387.53;4983230;28;20264;-71
2023/05/14 07:38:18;;;;;;;;;;;;;;;10.92;100.00;96386.75;4983375;28;19956;-72
2023/05/14 07:40:44;;;;;;;;;;;;;;;10.92;100.00;96394.63;4983149;28;20186;-71
2023/05/14 07:43:09;;;;;;;;;;;;;;;10.96;100.00;96387.88;4983242;28;20191;-72
2023/05/14 07:45:36;;;;;;;;;;;;;;;10.99;100.00;96381.41;4982850;28;19963;-72
2023/05/14 07:48:01;;;;;;;;;;;;;;;11.02;100.00;96387.00;4983424;28;19968;-71
2023/05/14 07:50:27;;;;;;;;;;;;;;;11.08;100.00;96386.09;4983293;28;20023;-72
2023/05/14 07:52:53;;;;;;;;;;;;;;;11.14;100.00;96385.22;4983467;28;19987;-86
2023/05/14 07:55:19;;;;;;;;;;;;;;;11.18;100.00;96386.38;4983250;28;20031;-69
2023/05/14 07:57:45;;;;;;;;;;;;;;;11.20;100.00;96385.38;4982751;28;19944;-68
2023/05/14 08:00:11;;;;;;;;;;;;;;;11.22;100.00;96386.75;4982487;28;19996;-69
2023/05/14 08:02:37;;;;;;;;;;;;;;;11.25;100.00;96385.50;4982959;28;19956;-69
2023/05/14 08:05:03;;;;;;;;;;;;;;;11.29;100.00;96381.41;4982770;28;19961;-69
2023/05/14 08:07:29;;;;;;;;;;;;;;;11.36;100.00;96387.38;4982714;28;20154;-69
2023/05/14 08:09:55;;;;;;;;;;;;;;;11.42;100.00;96380.41;4983092;28;19959;-72
2023/05/14 08:12:21;;;;;;;;;;;;;;;11.45;100.00;96378.13;4982825;28;20034;-71
2023/05/14 08:14:47;;;;;;;;;;;;;;;11.49;100.00;96384.53;4982445;28;19956;-71
2023/05/14 08:17:13;;;;;;;;;;;;;;;11.53;100.00;96377.03;4982794;28;19972;-70
2023/05/14 08:19:39;;;;;;;;;;;;;;;11.60;100.00;96382.97;4983112;28;19954;-71
2023/05/14 08:22:04;;;;;;;;;;;;;;;11.64;100.00;96386.75;4982917;28;19956;-70
2023/05/14 08:24:30;;;;;;;;;;;;;;;11.69;100.00;96380.81;4982906;28;19976;-71
2023/05/14 08:26:56;;;;;;;;;;;;;;;11.76;100.00;96384.16;4982287;28;20187;-71
2023/05/14 08:29:22;;;;;;;;;;;;;;;11.84;100.00;96378.53;4982890;28;20023;-71
2023/05/14 08:31:48;;;;;;;;;;;;;;;11.95;100.00;96371.75;4982787;28;19952;-71
2023/05/14 08:34:14;;;;;;;;;;;;;;;12.03;100.00;96371.38;5049330;28;19958;-70
2023/05/14 08:36:40;;;;;;;;;;;;;;;12.12;100.00;96371.84;4982715;28;19959;-71
2023/05/14 08:39:06;;;;;;;;;;;;;;;12.20;100.00;96371.50;4982741;28;20020;-71
2023/05/14 08:41:33;;;;;;;;;;;;;;;12.25;100.00;96373.44;5049041;28;19951;-71
2023/05/14 08:44:05;;;;;;;;;;;;;;;12.28;100.00;96365.88;4982044;28;20248;-71
2023/05/14 08:46:31;;;;;;;;;;;;;;;12.37;100.00;96374.25;4982747;28;19969;-77
2023/05/14 08:49:12;;;;;;;;;;;;;;;12.43;100.00;96372.50;4982578;28;19958;-69
2023/05/14 08:51:39;;;;;;;;;;;;;;;12.50;100.00;96365.28;4982601;28;19962;-77
2023/05/14 08:54:05;;;;;;;;;;;;;;;12.58;100.00;96373.63;4982164;28;20221;-77
2023/05/14 08:56:31;;;;;;;;;;;;;;;12.70;100.00;96367.53;4982519;28;19955;-77
2023/05/14 08:58:57;;;;;;;;;;;;;;;12.77;100.00;96355.84;4982169;28;19968;-77
2023/05/14 09:01:24;;;;;;;;;;;;;;;12.86;100.00;96356.28;4982684;28;20164;-77
2023/05/14 09:03:51;;;;;;;;;;;;;;;12.93;100.00;96354.28;5048783;28;19951;-77
2023/05/14 09:06:17;;;;;;;;;;;;;;;13.03;100.00;96368.69;4982140;28;19961;-69
2023/05/14 09:08:43;;;;;;;;;;;;;;;13.12;100.00;96362.81;4982414;28;19965;-78
2023/05/14 09:11:09;;;;;;;;;;;;;;;13.22;100.00;96358.75;4983612;28;19961;-77
2023/05/14 09:13:38;;;;;;;;;;;;;;;13.33;100.00;96360.56;4985628;28;19961;-78
2023/05/14 09:16:04;;;;;;;;;;;;;;;13.39;100.00;96351.72;4985764;28;20256;-78
2023/05/14 09:18:30;;;;;;;;;;;;;;;13.45;100.00;96348.13;4985598;28;19958;-78
2023/05/14 09:20:56;;;;;;;;;;;;;;;13.50;100.00;96339.50;4985632;28;19976;-77
2023/05/14 09:23:25;;;;;;;;;;;;;;;13.58;100.00;96337.25;4985637;28;19963;-69
2023/05/14 09:25:51;;;;;;;;;;;;;;;13.71;100.00;96323.00;4985812;28;19966;-71
2023/05/14 09:28:17;;;;;;;;;;;;;;;13.83;100.00;96316.81;5052730;28;20029;-71
2023/05/14 09:30:50;;;;;;;;;;;;;;;13.96;100.00;96324.38;4984918;28;19962;-71
2023/05/14 09:33:27;;;;;;;;;;;;;;;14.16;100.00;96329.16;4985569;28;19964;-70
2023/05/14 09:36:01;;;;;;;;;;;;;;;14.35;100.00;96322.56;4986177;28;20140;-70
2023/05/14 09:38:28;;;;;;;;;;;;;;;14.51;100.00;96323.56;4985443;28;19958;-72
2023/05/14 09:40:54;;;;;;;;;;;;;;;14.67;100.00;96321.13;4985374;28;20132;-71
2023/05/14 09:43:22;;;;;;;;;;;;;;;14.81;99.45;96296.72;4984759;28;20205;-74
2023/05/14 09:45:48;;;;;;;;;;;;;;;14.94;98.07;96305.31;4984903;28;20015;-71
2023/05/14 09:48:14;;;;;;;;;;;;;;;15.08;100.00;96309.16;4984971;28;20150;-70
2023/05/14 09:50:41;;;;;;;;;;;;;;;15.18;98.82;96309.25;4984729;28;19961;-71
2023/05/14 09:53:07;;;;;;;;;;;;;;;15.19;98.27;96305.53;4985332;28;19961;-70
2023/05/14 09:55:34;;;;;;;;;;;;;;;15.09;95.34;96286.94;4984823;28;19960;-71
2023/05/14 09:58:00;;;;;;;;;;;;;;;15.05;95.32;96288.50;4984807;28;19960;-70
2023/05/14 10:00:26;;;;;;;;;;;;;;;15.02;95.29;96289.81;4984474;28;19950;-71
2023/05/14 10:02:52;;;;;;;;;;;;;;;15.15;93.52;96272.75;4985015;28;19955;-69
2023/05/14 10:05:19;;;;;;;;;;;;;;;15.25;94.81;96281.84;4984844;28;19959;-71
2023/05/14 10:07:47;;;;;;;;;;;;;;;15.23;91.49;96264.38;4984836;28;19974;-72
2023/05/14 10:10:15;;;;;;;;;;;;;;;15.20;93.56;96279.91;4985108;28;19985;-72
2023/05/14 10:12:43;;;;;;;;;;;;;;;15.13;92.63;96269.56;4984736;28;19954;-72
2023/05/14 10:15:16;;;;;;;;;;;;;;;15.06;94.18;96276.13;4984804;28;20225;-72
2023/05/14 10:17:46;;;;;;;;;;;;;;;15.00;91.85;96262.06;4984527;28;19965;-72
2023/05/14 10:20:15;;;;;;;;;;;;;;;15.00;95.06;96289.25;4984963;28;19957;-69
2023/05/14 10:22:41;;;;;;;;;;;;;;;15.12;91.91;96264.53;4983869;28;19954;-69
2023/05/14 10:25:07;;;;;;;;;;;;;;;15.46;87.20;96229.94;4984488;28;19961;-69
2023/05/14 10:27:33;;;;;;;;;;;;;;;15.76;90.29;96248.66;4984426;28;19964;-69
2023/05/14 10:29:59;;;;;;;;;;;;;;;15.93;85.39;96227.31;4984263;28;20007;-69
2023/05/14 10:32:25;;;;;;;;;;;;;;;15.98;82.56;96194.81;4984483;28;19965;-68
2023/05/14 10:34:51;;;;;;;;;;;;;;;15.97;83.69;96217.03;4984490;28;19958;-68
2023/05/14 10:37:19;;;;;;;;;;;;;;;15.94;85.35;96226.28;4984547;28;19953;-85
2023/05/14 10:39:48;;;;;;;;;;;;;;;15.80;85.91;96231.22;4983998;28;19948;-84
2023/05/14 10:42:16;;;;;;;;;;;;;;;15.66;84.21;96222.13;4983971;28;19964;-73
2023/05/14 10:44:47;;;;;;;;;;;;;;;15.50;92.64;96279.38;4984303;28;19955;-73
2023/05/14 10:47:13;;;;;;;;;;;;;;;15.25;91.85;96271.25;4983971;28;20260;-73
2023/05/14 10:49:40;;;;;;;;;;;;;;;15.01;94.09;96293.50;4983857;28;19966;-73
2023/05/14 10:52:07;;;;;;;;;;;;;;;14.77;95.15;96298.25;4984018;28;19960;-73
2023/05/14 10:54:36;;;;;;;;;;;;;;;14.52;98.96;96305.88;4984011;28;20257;-73
2023/05/14 10:57:02;;;;;;;;;;;;;;;14.30;100.00;96313.78;4984125;28;20257;-75
2023/05/14 10:59:28;;;;;;;;;;;;;;;14.15;100.00;96312.56;4984120;28;20237;-67
2023/05/14 11:01:56;;;;;;;;;;;;;;;14.10;100.00;96314.31;4984149;28;19962;-66
2023/05/14 11:04:22;;;;;;;;;;;;;;;14.07;100.00;96305.06;4984125;28;19963;-67
2023/05/14 11:06:50;;;;;;;;;;;;;;;14.10;100.00;96301.13;4984172;28;19958;-67
2023/05/14 11:09:16;;;;;;;;;;;;;;;14.16;100.00;96300.16;4984216;28;19964;-67
2023/05/14 11:11:42;;;;;;;;;;;;;;;14.24;100.00;96296.28;4983749;28;19958;-67
2023/05/14 11:14:08;;;;;;;;;;;;;;;14.32;100.00;96293.22;4983888;28;19956;-74
2023/05/14 11:16:35;;;;;;;;;;;;;;;14.35;100.00;96290.91;4983569;28;19962;-74
2023/05/14 11:19:02;;;;;;;;;;;;;;;14.43;100.00;96292.31;4983320;28;19967;-72
2023/05/14 11:21:28;;;;;;;;;;;;;;;14.67;100.00;96284.16;4983619;28;20025;-72
2023/05/14 11:23:55;;;;;;;;;;;;;;;15.08;100.00;96279.31;4983951;28;20136;-72
2023/05/14 11:26:22;;;;;;;;;;;;;;;15.48;100.00;96270.91;4983648;28;19955;-72
2023/05/14 11:28:48;;;;;;;;;;;;;;;15.96;100.00;96252.47;4984047;28;19983;-72
2023/05/14 11:31:14;;;;;;;;;;;;;;;16.32;100.00;96234.13;4983703;28;19990;-72
2023/05/14 11:33:40;;;;;;;;;;;;;;;16.28;97.70;96225.09;4983114;28;19979;-70
2023/05/14 11:36:06;;;;;;;;;;;;;;;16.15;100.00;96250.19;4983038;28;20105;-75
2023/05/14 11:38:32;;;;;;;;;;;;;;;16.01;100.00;96255.13;4983263;28;19991;-75
2023/05/14 11:40:58;;;;;;;;;;;;;;;15.81;92.57;96206.38;4983150;28;19952;-75
2023/05/14 11:43:27;;;;;;;;;;;;;;;15.59;98.81;96243.50;4983231;28;19962;-75
2023/05/14 11:45:53;;;;;;;;;;;;;;;15.42;98.06;96243.66;4983138;28;19964;-74
2023/05/14 11:48:19;;;;;;;;;;;;;;;15.38;100.00;96261.06;4983221;28;19969;-74
2023/05/14 11:50:50;;;;;;;;;;;;;;;15.36;100.00;96251.78;4983398;28;19951;-70
2023/05/14 11:53:23;;;;;;;;;;;;;;;15.58;100.00;96265.69;4983475;28;19970;-89
2023/05/14 11:55:49;;;;;;;;;;;;;;;16.05;100.00;96250.94;4983318;28;19953;-75
2023/05/14 11:58:17;;;;;;;;;;;;;;;16.48;98.23;96197.88;4983245;28;20001;-75
2023/05/14 12:00:44;;;;;;;;;;;;;;;16.66;100.00;96225.75;4983268;28;19951;-74
2023/05/14 12:03:10;;;;;;;;;;;;;;;16.63;93.21;96174.09;4982716;28;19977;-74
2023/05/14 12:05:37;;;;;;;;;;;;;;;16.51;98.41;96211.41;4983182;28;19961;-75
2023/05/14 12:08:03;;;;;;;;;;;;;;;16.53;95.63;96192.63;4982907;28;19968;-74
2023/05/14 12:10:28;;;;;;;;;;;;;;;16.79;95.80;96193.44;4982870;28;19966;-93
2023/05/14 12:12:54;;;;;;;;;;;;;;;17.12;99.80;96204.63;4983345;28;19962;-70
2023/05/14 12:15:21;;;;;;;;;;;;;;;17.44;100.00;96205.13;4983079;28;19956;-70
2023/05/14 12:17:52;;;;;;;;;;;;;;;17.75;91.33;96146.72;4982723;28;19974;-70
2023/05/14 12:20:18;;;;;;;;;;;;;;;17.90;78.57;96062.88;4983042;28;19963;-70
2023/05/14 12:22:44;;;;;;;;;;;;;;;17.82;88.73;96146.41;4982887;28;20134;-70
2023/05/14 12:25:14;;;;;;;;;;;;;;;17.85;77.84;96058.38;4983161;28;19954;-70
2023/05/14 12:27:43;;;;;;;;;;;;;;;17.68;84.98;96129.50;4982783;28;19969;-90
2023/05/14 12:30:11;;;;;;;;;;;;;;;17.33;86.88;96145.25;4983170;28;20214;-75
2023/05/14 12:32:38;;;;;;;;;;;;;;;17.03;90.06;96164.63;5049371;28;20248;-72
2023/05/14 12:35:04;;;;;;;;;;;;;;;16.71;90.17;96156.88;4982902;28;19978;-71